sensor_id;sensor_type;location;lat;lon;timestamp;P1;durP1;ratioP1;P2;durP2;ratioP2
53873;SDS011;62246;50.938;4.058;2022-08-19T00:01:42;55.92;;;32.80;;
53873;SDS011;62246;50.938;4.058;2022-08-19T00:04:11;61.65;;;35.40;;
53873;SDS011;62246;50.938;4.058;2022-08-19T00:06:39;59.20;;;33.58;;
53873;SDS011;62246;50.938;4.058;2022-08-19T00:09:08;63.65;;;36.17;;
53873;SDS011;62246;50.938;4.058;2022-08-19T00:11:35;56.35;;;31.73;;
53873;SDS011;62246;50.938;4.058;2022-08-19T00:14:02;63.38;;;35.92;;
53873;SDS011;62246;50.938;4.058;2022-08-19T00:16:29;61.88;;;33.65;;
53873;SDS011;62246;50.938;4.058;2022-08-19T00:18:55;60.97;;;31.75;;
53873;SDS011;62246;50.938;4.058;2022-08-19T00:21:21;64.28;;;34.60;;
53873;SDS011;62246;50.938;4.058;2022-08-19T00:23:48;54.10;;;31.73;;
53873;SDS011;62246;50.938;4.058;2022-08-19T00:26:13;62.80;;;33.75;;
53873;SDS011;62246;50.938;4.058;2022-08-19T00:28:39;58.88;;;32.15;;
53873;SDS011;62246;50.938;4.058;2022-08-19T00:31:07;56.30;;;33.47;;
53873;SDS011;62246;50.938;4.058;2022-08-19T00:33:34;51.90;;;30.88;;
53873;SDS011;62246;50.938;4.058;2022-08-19T00:36:00;57.25;;;33.15;;
53873;SDS011;62246;50.938;4.058;2022-08-19T00:38:26;60.38;;;34.20;;
53873;SDS011;62246;50.938;4.058;2022-08-19T00:40:51;60.40;;;33.95;;
53873;SDS011;62246;50.938;4.058;2022-08-19T00:43:21;62.35;;;34.78;;
53873;SDS011;62246;50.938;4.058;2022-08-19T00:45:48;64.18;;;35.47;;
53873;SDS011;62246;50.938;4.058;2022-08-19T00:48:15;58.28;;;33.22;;
53873;SDS011;62246;50.938;4.058;2022-08-19T00:50:41;57.00;;;32.63;;
53873;SDS011;62246;50.938;4.058;2022-08-19T00:53:09;61.58;;;33.97;;
53873;SDS011;62246;50.938;4.058;2022-08-19T00:55:37;59.70;;;33.95;;
53873;SDS011;62246;50.938;4.058;2022-08-19T00:58:06;55.45;;;32.70;;
53873;SDS011;62246;50.938;4.058;2022-08-19T01:00:35;60.28;;;33.85;;
53873;SDS011;62246;50.938;4.058;2022-08-19T01:03:12;64.47;;;34.85;;
53873;SDS011;62246;50.938;4.058;2022-08-19T01:05:44;62.35;;;34.30;;
53873;SDS011;62246;50.938;4.058;2022-08-19T01:08:13;62.35;;;34.15;;
53873;SDS011;62246;50.938;4.058;2022-08-19T01:10:42;60.53;;;34.20;;
53873;SDS011;62246;50.938;4.058;2022-08-19T01:13:11;59.50;;;34.50;;
53873;SDS011;62246;50.938;4.058;2022-08-19T01:15:40;61.70;;;34.70;;
53873;SDS011;62246;50.938;4.058;2022-08-19T01:18:10;61.97;;;33.65;;
53873;SDS011;62246;50.938;4.058;2022-08-19T01:20:38;64.18;;;34.70;;
53873;SDS011;62246;50.938;4.058;2022-08-19T01:23:04;67.07;;;36.83;;
53873;SDS011;62246;50.938;4.058;2022-08-19T01:25:32;65.93;;;34.97;;
53873;SDS011;62246;50.938;4.058;2022-08-19T01:28:20;65.32;;;34.45;;
53873;SDS011;62246;50.938;4.058;2022-08-19T01:30:51;61.30;;;33.30;;
53873;SDS011;62246;50.938;4.058;2022-08-19T01:33:18;59.47;;;34.53;;
53873;SDS011;62246;50.938;4.058;2022-08-19T01:35:44;57.47;;;32.03;;
53873;SDS011;62246;50.938;4.058;2022-08-19T01:38:19;56.38;;;32.42;;
53873;SDS011;62246;50.938;4.058;2022-08-19T01:40:52;49.83;;;28.20;;
53873;SDS011;62246;50.938;4.058;2022-08-19T01:43:17;53.40;;;30.35;;
53873;SDS011;62246;50.938;4.058;2022-08-19T01:45:44;54.50;;;31.27;;
53873;SDS011;62246;50.938;4.058;2022-08-19T01:48:10;52.55;;;29.15;;
53873;SDS011;62246;50.938;4.058;2022-08-19T01:50:36;47.67;;;28.17;;
53873;SDS011;62246;50.938;4.058;2022-08-19T01:53:02;53.80;;;29.42;;
53873;SDS011;62246;50.938;4.058;2022-08-19T01:55:30;51.15;;;29.00;;
53873;SDS011;62246;50.938;4.058;2022-08-19T01:57:58;45.50;;;27.00;;
53873;SDS011;62246;50.938;4.058;2022-08-19T02:00:28;45.30;;;26.05;;
53873;SDS011;62246;50.938;4.058;2022-08-19T02:02:56;48.40;;;27.83;;
53873;SDS011;62246;50.938;4.058;2022-08-19T02:05:21;48.10;;;26.80;;
53873;SDS011;62246;50.938;4.058;2022-08-19T02:07:47;46.28;;;26.70;;
53873;SDS011;62246;50.938;4.058;2022-08-19T02:10:15;45.60;;;25.75;;
53873;SDS011;62246;50.938;4.058;2022-08-19T02:12:44;43.65;;;24.63;;
53873;SDS011;62246;50.938;4.058;2022-08-19T02:15:10;43.78;;;24.42;;
53873;SDS011;62246;50.938;4.058;2022-08-19T02:17:36;44.78;;;24.98;;
53873;SDS011;62246;50.938;4.058;2022-08-19T02:20:02;47.25;;;25.80;;
53873;SDS011;62246;50.938;4.058;2022-08-19T02:22:28;43.45;;;25.48;;
53873;SDS011;62246;50.938;4.058;2022-08-19T02:24:54;43.90;;;25.80;;
53873;SDS011;62246;50.938;4.058;2022-08-19T02:27:20;40.63;;;23.52;;
53873;SDS011;62246;50.938;4.058;2022-08-19T02:29:47;43.30;;;24.38;;
53873;SDS011;62246;50.938;4.058;2022-08-19T02:32:14;46.08;;;25.70;;
53873;SDS011;62246;50.938;4.058;2022-08-19T02:34:40;44.10;;;24.70;;
53873;SDS011;62246;50.938;4.058;2022-08-19T02:37:06;40.72;;;23.92;;
53873;SDS011;62246;50.938;4.058;2022-08-19T02:39:51;40.05;;;23.52;;
53873;SDS011;62246;50.938;4.058;2022-08-19T02:42:17;41.30;;;22.33;;
53873;SDS011;62246;50.938;4.058;2022-08-19T02:44:42;42.35;;;24.55;;
53873;SDS011;62246;50.938;4.058;2022-08-19T02:47:07;39.83;;;23.35;;
53873;SDS011;62246;50.938;4.058;2022-08-19T02:49:34;46.88;;;24.42;;
53873;SDS011;62246;50.938;4.058;2022-08-19T02:51:59;42.90;;;23.33;;
53873;SDS011;62246;50.938;4.058;2022-08-19T02:54:25;38.72;;;22.33;;
53873;SDS011;62246;50.938;4.058;2022-08-19T02:56:50;40.15;;;23.02;;
53873;SDS011;62246;50.938;4.058;2022-08-19T02:59:16;46.03;;;23.60;;
53873;SDS011;62246;50.938;4.058;2022-08-19T03:01:42;45.10;;;22.98;;
53873;SDS011;62246;50.938;4.058;2022-08-19T03:04:08;44.97;;;23.60;;
53873;SDS011;62246;50.938;4.058;2022-08-19T03:06:36;44.10;;;22.55;;
53873;SDS011;62246;50.938;4.058;2022-08-19T03:09:03;39.92;;;21.33;;
53873;SDS011;62246;50.938;4.058;2022-08-19T03:11:29;42.15;;;23.20;;
53873;SDS011;62246;50.938;4.058;2022-08-19T03:13:57;43.08;;;22.48;;
53873;SDS011;62246;50.938;4.058;2022-08-19T03:16:24;40.28;;;21.83;;
53873;SDS011;62246;50.938;4.058;2022-08-19T03:18:52;40.25;;;22.63;;
53873;SDS011;62246;50.938;4.058;2022-08-19T03:21:20;38.13;;;20.45;;
53873;SDS011;62246;50.938;4.058;2022-08-19T03:23:48;39.50;;;21.63;;
53873;SDS011;62246;50.938;4.058;2022-08-19T03:26:14;38.10;;;21.33;;
53873;SDS011;62246;50.938;4.058;2022-08-19T03:28:40;38.22;;;20.02;;
53873;SDS011;62246;50.938;4.058;2022-08-19T03:31:07;43.42;;;20.95;;
53873;SDS011;62246;50.938;4.058;2022-08-19T03:33:37;35.15;;;19.25;;
53873;SDS011;62246;50.938;4.058;2022-08-19T03:36:07;38.53;;;19.08;;
53873;SDS011;62246;50.938;4.058;2022-08-19T03:38:44;37.90;;;19.20;;
53873;SDS011;62246;50.938;4.058;2022-08-19T03:41:17;36.25;;;20.10;;
53873;SDS011;62246;50.938;4.058;2022-08-19T03:43:45;36.17;;;19.10;;
53873;SDS011;62246;50.938;4.058;2022-08-19T03:46:19;33.88;;;18.60;;
53873;SDS011;62246;50.938;4.058;2022-08-19T03:48:46;38.85;;;17.75;;
53873;SDS011;62246;50.938;4.058;2022-08-19T03:51:20;37.22;;;18.33;;
53873;SDS011;62246;50.938;4.058;2022-08-19T03:53:50;34.60;;;17.92;;
53873;SDS011;62246;50.938;4.058;2022-08-19T03:56:16;38.28;;;18.95;;
53873;SDS011;62246;50.938;4.058;2022-08-19T03:58:41;30.65;;;16.45;;
53873;SDS011;62246;50.938;4.058;2022-08-19T04:01:08;32.50;;;16.95;;
53873;SDS011;62246;50.938;4.058;2022-08-19T04:03:35;32.75;;;15.60;;
53873;SDS011;62246;50.938;4.058;2022-08-19T04:06:27;31.90;;;17.27;;
53873;SDS011;62246;50.938;4.058;2022-08-19T04:08:54;32.08;;;17.08;;
53873;SDS011;62246;50.938;4.058;2022-08-19T04:11:25;30.55;;;16.33;;
53873;SDS011;62246;50.938;4.058;2022-08-19T04:13:52;30.17;;;15.48;;
53873;SDS011;62246;50.938;4.058;2022-08-19T04:16:19;31.75;;;16.48;;
53873;SDS011;62246;50.938;4.058;2022-08-19T04:18:46;32.15;;;16.92;;
53873;SDS011;62246;50.938;4.058;2022-08-19T04:21:17;35.97;;;18.70;;
53873;SDS011;62246;50.938;4.058;2022-08-19T04:23:44;34.70;;;18.50;;
53873;SDS011;62246;50.938;4.058;2022-08-19T04:26:17;31.35;;;17.55;;
53873;SDS011;62246;50.938;4.058;2022-08-19T04:28:44;32.75;;;17.70;;
53873;SDS011;62246;50.938;4.058;2022-08-19T04:31:14;28.15;;;16.55;;
53873;SDS011;62246;50.938;4.058;2022-08-19T04:33:43;31.33;;;17.48;;
53873;SDS011;62246;50.938;4.058;2022-08-19T04:36:15;36.20;;;17.98;;
53873;SDS011;62246;50.938;4.058;2022-08-19T04:38:45;32.03;;;18.63;;
53873;SDS011;62246;50.938;4.058;2022-08-19T04:41:12;34.90;;;17.83;;
53873;SDS011;62246;50.938;4.058;2022-08-19T04:43:56;31.92;;;17.52;;
53873;SDS011;62246;50.938;4.058;2022-08-19T04:46:21;31.45;;;17.67;;
53873;SDS011;62246;50.938;4.058;2022-08-19T04:48:47;35.95;;;18.00;;
53873;SDS011;62246;50.938;4.058;2022-08-19T04:51:12;36.70;;;20.00;;
53873;SDS011;62246;50.938;4.058;2022-08-19T04:53:38;33.25;;;18.40;;
53873;SDS011;62246;50.938;4.058;2022-08-19T04:56:10;37.78;;;20.15;;
53873;SDS011;62246;50.938;4.058;2022-08-19T04:58:38;36.85;;;19.38;;
53873;SDS011;62246;50.938;4.058;2022-08-19T05:01:07;33.83;;;18.42;;
53873;SDS011;62246;50.938;4.058;2022-08-19T05:03:41;36.63;;;18.83;;
53873;SDS011;62246;50.938;4.058;2022-08-19T05:06:09;35.83;;;17.92;;
53873;SDS011;62246;50.938;4.058;2022-08-19T05:08:39;34.75;;;18.88;;
53873;SDS011;62246;50.938;4.058;2022-08-19T05:11:27;38.25;;;17.30;;
53873;SDS011;62246;50.938;4.058;2022-08-19T05:13:54;39.00;;;18.48;;
53873;SDS011;62246;50.938;4.058;2022-08-19T05:16:22;35.47;;;17.55;;
53873;SDS011;62246;50.938;4.058;2022-08-19T05:18:49;35.15;;;17.52;;
53873;SDS011;62246;50.938;4.058;2022-08-19T05:21:34;31.98;;;17.50;;
53873;SDS011;62246;50.938;4.058;2022-08-19T05:24:19;30.65;;;16.08;;
53873;SDS011;62246;50.938;4.058;2022-08-19T05:26:46;31.10;;;16.67;;
53873;SDS011;62246;50.938;4.058;2022-08-19T05:29:17;32.70;;;17.02;;
53873;SDS011;62246;50.938;4.058;2022-08-19T05:31:45;30.15;;;15.80;;
53873;SDS011;62246;50.938;4.058;2022-08-19T05:34:11;29.52;;;14.95;;
53873;SDS011;62246;50.938;4.058;2022-08-19T05:36:40;33.42;;;15.55;;
53873;SDS011;62246;50.938;4.058;2022-08-19T05:39:09;32.35;;;14.98;;
53873;SDS011;62246;50.938;4.058;2022-08-19T05:41:36;28.95;;;15.13;;
53873;SDS011;62246;50.938;4.058;2022-08-19T05:44:05;26.70;;;14.02;;
53873;SDS011;62246;50.938;4.058;2022-08-19T05:46:34;29.83;;;15.18;;
53873;SDS011;62246;50.938;4.058;2022-08-19T05:49:00;25.50;;;14.00;;
53873;SDS011;62246;50.938;4.058;2022-08-19T05:51:25;26.77;;;14.05;;
53873;SDS011;62246;50.938;4.058;2022-08-19T05:53:51;28.13;;;13.55;;
53873;SDS011;62246;50.938;4.058;2022-08-19T05:56:17;28.90;;;13.80;;
53873;SDS011;62246;50.938;4.058;2022-08-19T05:58:43;32.67;;;14.52;;
53873;SDS011;62246;50.938;4.058;2022-08-19T06:01:15;30.02;;;14.57;;
53873;SDS011;62246;50.938;4.058;2022-08-19T06:03:42;25.75;;;14.18;;
53873;SDS011;62246;50.938;4.058;2022-08-19T06:06:09;24.08;;;13.32;;
53873;SDS011;62246;50.938;4.058;2022-08-19T06:08:35;29.63;;;13.85;;
53873;SDS011;62246;50.938;4.058;2022-08-19T06:11:20;31.45;;;15.45;;
53873;SDS011;62246;50.938;4.058;2022-08-19T06:13:48;29.45;;;13.10;;
53873;SDS011;62246;50.938;4.058;2022-08-19T06:16:18;29.73;;;14.30;;
53873;SDS011;62246;50.938;4.058;2022-08-19T06:18:47;35.00;;;15.27;;
53873;SDS011;62246;50.938;4.058;2022-08-19T06:21:13;26.30;;;13.73;;
53873;SDS011;62246;50.938;4.058;2022-08-19T06:23:39;25.17;;;12.80;;
53873;SDS011;62246;50.938;4.058;2022-08-19T06:26:05;22.70;;;12.90;;
53873;SDS011;62246;50.938;4.058;2022-08-19T06:28:30;27.80;;;13.35;;
53873;SDS011;62246;50.938;4.058;2022-08-19T06:30:57;23.55;;;12.02;;
53873;SDS011;62246;50.938;4.058;2022-08-19T06:33:23;23.55;;;12.38;;
53873;SDS011;62246;50.938;4.058;2022-08-19T06:35:49;20.77;;;12.13;;
53873;SDS011;62246;50.938;4.058;2022-08-19T06:38:14;26.50;;;11.63;;
53873;SDS011;62246;50.938;4.058;2022-08-19T06:40:39;24.05;;;11.25;;
53873;SDS011;62246;50.938;4.058;2022-08-19T06:43:05;22.98;;;11.98;;
53873;SDS011;62246;50.938;4.058;2022-08-19T06:45:30;22.42;;;11.30;;
53873;SDS011;62246;50.938;4.058;2022-08-19T06:47:57;25.63;;;12.05;;
53873;SDS011;62246;50.938;4.058;2022-08-19T06:50:23;21.65;;;11.32;;
53873;SDS011;62246;50.938;4.058;2022-08-19T06:52:49;21.50;;;11.25;;
53873;SDS011;62246;50.938;4.058;2022-08-19T06:55:14;21.95;;;11.32;;
53873;SDS011;62246;50.938;4.058;2022-08-19T06:57:41;24.63;;;11.30;;
53873;SDS011;62246;50.938;4.058;2022-08-19T07:00:07;22.70;;;10.98;;
53873;SDS011;62246;50.938;4.058;2022-08-19T07:02:43;22.92;;;11.38;;
53873;SDS011;62246;50.938;4.058;2022-08-19T07:05:09;20.50;;;10.88;;
53873;SDS011;62246;50.938;4.058;2022-08-19T07:07:35;19.75;;;10.32;;
53873;SDS011;62246;50.938;4.058;2022-08-19T07:10:00;16.15;;;9.50;;
53873;SDS011;62246;50.938;4.058;2022-08-19T07:12:30;19.77;;;10.00;;
53873;SDS011;62246;50.938;4.058;2022-08-19T07:14:59;17.13;;;10.18;;
53873;SDS011;62246;50.938;4.058;2022-08-19T07:17:26;21.40;;;10.60;;
53873;SDS011;62246;50.938;4.058;2022-08-19T07:19:52;18.38;;;9.40;;
53873;SDS011;62246;50.938;4.058;2022-08-19T07:22:17;19.45;;;9.57;;
53873;SDS011;62246;50.938;4.058;2022-08-19T07:24:45;17.08;;;8.57;;
53873;SDS011;62246;50.938;4.058;2022-08-19T07:27:10;16.60;;;9.48;;
53873;SDS011;62246;50.938;4.058;2022-08-19T07:29:38;17.20;;;9.38;;
53873;SDS011;62246;50.938;4.058;2022-08-19T07:32:04;16.40;;;8.73;;
53873;SDS011;62246;50.938;4.058;2022-08-19T07:34:31;16.77;;;8.27;;
53873;SDS011;62246;50.938;4.058;2022-08-19T07:37:02;15.90;;;8.02;;
53873;SDS011;62246;50.938;4.058;2022-08-19T07:39:31;14.95;;;7.93;;
53873;SDS011;62246;50.938;4.058;2022-08-19T07:41:58;16.50;;;8.80;;
53873;SDS011;62246;50.938;4.058;2022-08-19T07:44:26;17.27;;;8.88;;
53873;SDS011;62246;50.938;4.058;2022-08-19T07:46:53;17.00;;;8.35;;
53873;SDS011;62246;50.938;4.058;2022-08-19T07:49:21;16.45;;;7.80;;
53873;SDS011;62246;50.938;4.058;2022-08-19T07:52:05;15.60;;;8.13;;
53873;SDS011;62246;50.938;4.058;2022-08-19T07:54:34;16.58;;;8.40;;
53873;SDS011;62246;50.938;4.058;2022-08-19T07:57:01;14.63;;;7.55;;
53873;SDS011;62246;50.938;4.058;2022-08-19T07:59:28;13.82;;;7.07;;
53873;SDS011;62246;50.938;4.058;2022-08-19T08:01:54;17.92;;;8.23;;
53873;SDS011;62246;50.938;4.058;2022-08-19T08:04:21;16.33;;;8.18;;
53873;SDS011;62246;50.938;4.058;2022-08-19T08:07:05;15.85;;;7.80;;
53873;SDS011;62246;50.938;4.058;2022-08-19T08:09:50;15.13;;;7.88;;
53873;SDS011;62246;50.938;4.058;2022-08-19T08:12:18;17.15;;;7.55;;
53873;SDS011;62246;50.938;4.058;2022-08-19T08:14:49;16.77;;;8.43;;
53873;SDS011;62246;50.938;4.058;2022-08-19T08:17:17;16.38;;;8.02;;
53873;SDS011;62246;50.938;4.058;2022-08-19T08:19:44;15.93;;;7.50;;
53873;SDS011;62246;50.938;4.058;2022-08-19T08:22:11;17.58;;;8.30;;
53873;SDS011;62246;50.938;4.058;2022-08-19T08:25:15;16.40;;;7.50;;
53873;SDS011;62246;50.938;4.058;2022-08-19T08:27:44;14.15;;;7.15;;
53873;SDS011;62246;50.938;4.058;2022-08-19T08:30:12;20.38;;;8.07;;
53873;SDS011;62246;50.938;4.058;2022-08-19T08:32:40;15.55;;;7.40;;
53873;SDS011;62246;50.938;4.058;2022-08-19T08:35:07;16.80;;;7.68;;
53873;SDS011;62246;50.938;4.058;2022-08-19T08:37:35;15.70;;;8.25;;
53873;SDS011;62246;50.938;4.058;2022-08-19T08:40:09;15.05;;;7.68;;
53873;SDS011;62246;50.938;4.058;2022-08-19T08:42:51;17.17;;;7.72;;
53873;SDS011;62246;50.938;4.058;2022-08-19T08:47:52;18.23;;;8.15;;
53873;SDS011;62246;50.938;4.058;2022-08-19T08:50:24;14.05;;;7.25;;
53873;SDS011;62246;50.938;4.058;2022-08-19T08:52:57;14.88;;;8.07;;
53873;SDS011;62246;50.938;4.058;2022-08-19T08:55:24;14.35;;;7.10;;
53873;SDS011;62246;50.938;4.058;2022-08-19T08:58:05;16.05;;;8.25;;
53873;SDS011;62246;50.938;4.058;2022-08-19T09:00:45;15.60;;;7.88;;
53873;SDS011;62246;50.938;4.058;2022-08-19T09:03:17;14.52;;;7.57;;
53873;SDS011;62246;50.938;4.058;2022-08-19T09:08:39;13.82;;;7.55;;
53873;SDS011;62246;50.938;4.058;2022-08-19T09:11:12;14.63;;;7.50;;
53873;SDS011;62246;50.938;4.058;2022-08-19T09:13:51;12.52;;;6.75;;
53873;SDS011;62246;50.938;4.058;2022-08-19T09:16:37;15.75;;;7.10;;
53873;SDS011;62246;50.938;4.058;2022-08-19T09:19:06;12.63;;;6.43;;
53873;SDS011;62246;50.938;4.058;2022-08-19T09:21:33;14.90;;;7.35;;
53873;SDS011;62246;50.938;4.058;2022-08-19T09:24:00;13.07;;;6.75;;
53873;SDS011;62246;50.938;4.058;2022-08-19T09:26:26;12.95;;;7.28;;
53873;SDS011;62246;50.938;4.058;2022-08-19T09:28:52;16.88;;;7.05;;
53873;SDS011;62246;50.938;4.058;2022-08-19T09:31:20;13.32;;;6.57;;
53873;SDS011;62246;50.938;4.058;2022-08-19T09:33:51;13.30;;;6.15;;
53873;SDS011;62246;50.938;4.058;2022-08-19T09:36:17;10.75;;;5.90;;
53873;SDS011;62246;50.938;4.058;2022-08-19T09:38:44;11.88;;;5.72;;
53873;SDS011;62246;50.938;4.058;2022-08-19T09:41:12;9.80;;;5.97;;
53873;SDS011;62246;50.938;4.058;2022-08-19T09:43:39;9.68;;;5.45;;
53873;SDS011;62246;50.938;4.058;2022-08-19T09:46:07;13.02;;;6.72;;
53873;SDS011;62246;50.938;4.058;2022-08-19T09:48:40;14.20;;;6.68;;
53873;SDS011;62246;50.938;4.058;2022-08-19T09:51:08;15.57;;;6.22;;
53873;SDS011;62246;50.938;4.058;2022-08-19T09:53:37;12.65;;;5.90;;
53873;SDS011;62246;50.938;4.058;2022-08-19T09:56:03;10.93;;;6.07;;
53873;SDS011;62246;50.938;4.058;2022-08-19T09:58:30;10.45;;;5.20;;
53873;SDS011;62246;50.938;4.058;2022-08-19T10:00:57;9.70;;;4.80;;
53873;SDS011;62246;50.938;4.058;2022-08-19T10:03:25;8.55;;;4.10;;
53873;SDS011;62246;50.938;4.058;2022-08-19T10:05:51;11.85;;;4.70;;
53873;SDS011;62246;50.938;4.058;2022-08-19T10:08:20;14.07;;;4.55;;
53873;SDS011;62246;50.938;4.058;2022-08-19T10:10:53;7.93;;;4.80;;
53873;SDS011;62246;50.938;4.058;2022-08-19T10:13:20;7.93;;;4.38;;
53873;SDS011;62246;50.938;4.058;2022-08-19T10:15:51;10.05;;;5.28;;
53873;SDS011;62246;50.938;4.058;2022-08-19T10:18:19;9.05;;;4.75;;
53873;SDS011;62246;50.938;4.058;2022-08-19T10:20:49;11.25;;;4.65;;
53873;SDS011;62246;50.938;4.058;2022-08-19T10:23:18;9.82;;;4.72;;
53873;SDS011;62246;50.938;4.058;2022-08-19T10:25:44;11.95;;;5.53;;
53873;SDS011;62246;50.938;4.058;2022-08-19T10:28:10;13.30;;;5.45;;
53873;SDS011;62246;50.938;4.058;2022-08-19T10:30:37;10.77;;;5.32;;
53873;SDS011;62246;50.938;4.058;2022-08-19T10:33:04;10.80;;;5.45;;
53873;SDS011;62246;50.938;4.058;2022-08-19T10:35:30;9.27;;;5.03;;
53873;SDS011;62246;50.938;4.058;2022-08-19T10:37:56;10.23;;;5.00;;
53873;SDS011;62246;50.938;4.058;2022-08-19T10:40:26;9.00;;;5.00;;
53873;SDS011;62246;50.938;4.058;2022-08-19T10:42:53;8.95;;;4.47;;
53873;SDS011;62246;50.938;4.058;2022-08-19T10:45:20;8.77;;;4.32;;
53873;SDS011;62246;50.938;4.058;2022-08-19T10:47:51;10.63;;;5.40;;
53873;SDS011;62246;50.938;4.058;2022-08-19T10:50:18;9.43;;;4.90;;
53873;SDS011;62246;50.938;4.058;2022-08-19T10:53:05;9.40;;;4.85;;
53873;SDS011;62246;50.938;4.058;2022-08-19T10:58:20;9.77;;;4.30;;
53873;SDS011;62246;50.938;4.058;2022-08-19T11:00:54;9.57;;;4.30;;
53873;SDS011;62246;50.938;4.058;2022-08-19T11:03:22;9.82;;;4.30;;
53873;SDS011;62246;50.938;4.058;2022-08-19T11:06:03;8.07;;;4.45;;
53873;SDS011;62246;50.938;4.058;2022-08-19T11:08:31;10.23;;;4.60;;
53873;SDS011;62246;50.938;4.058;2022-08-19T11:10:58;9.85;;;4.18;;
53873;SDS011;62246;50.938;4.058;2022-08-19T11:13:30;9.73;;;4.70;;
53873;SDS011;62246;50.938;4.058;2022-08-19T11:18:28;6.93;;;3.55;;
53873;SDS011;62246;50.938;4.058;2022-08-19T11:20:53;7.88;;;3.85;;
53873;SDS011;62246;50.938;4.058;2022-08-19T11:23:19;9.45;;;4.30;;
53873;SDS011;62246;50.938;4.058;2022-08-19T11:25:45;9.18;;;4.20;;
53873;SDS011;62246;50.938;4.058;2022-08-19T11:28:11;13.05;;;4.85;;
53873;SDS011;62246;50.938;4.058;2022-08-19T11:30:37;10.18;;;4.90;;
53873;SDS011;62246;50.938;4.058;2022-08-19T11:33:03;7.85;;;5.38;;
53873;SDS011;62246;50.938;4.058;2022-08-19T11:35:29;7.78;;;4.78;;
53873;SDS011;62246;50.938;4.058;2022-08-19T11:37:54;7.65;;;4.78;;
53873;SDS011;62246;50.938;4.058;2022-08-19T11:40:22;13.00;;;7.07;;
53873;SDS011;62246;50.938;4.058;2022-08-19T11:42:48;9.65;;;6.20;;
53873;SDS011;62246;50.938;4.058;2022-08-19T11:45:26;8.02;;;5.55;;
53873;SDS011;62246;50.938;4.058;2022-08-19T11:47:52;10.40;;;6.85;;
53873;SDS011;62246;50.938;4.058;2022-08-19T11:50:18;10.90;;;7.03;;
53873;SDS011;62246;50.938;4.058;2022-08-19T11:52:44;11.32;;;6.75;;
53873;SDS011;62246;50.938;4.058;2022-08-19T11:55:10;9.30;;;6.35;;
53873;SDS011;62246;50.938;4.058;2022-08-19T11:57:36;9.23;;;6.72;;
53873;SDS011;62246;50.938;4.058;2022-08-19T12:00:03;10.13;;;6.97;;
53873;SDS011;62246;50.938;4.058;2022-08-19T12:02:31;8.65;;;6.30;;
53873;SDS011;62246;50.938;4.058;2022-08-19T12:04:57;10.77;;;5.95;;
53873;SDS011;62246;50.938;4.058;2022-08-19T12:07:22;9.43;;;5.40;;
53873;SDS011;62246;50.938;4.058;2022-08-19T12:09:48;11.20;;;6.05;;
53873;SDS011;62246;50.938;4.058;2022-08-19T12:12:13;11.57;;;5.43;;
53873;SDS011;62246;50.938;4.058;2022-08-19T12:14:39;7.30;;;4.38;;
53873;SDS011;62246;50.938;4.058;2022-08-19T12:17:04;5.78;;;3.70;;
53873;SDS011;62246;50.938;4.058;2022-08-19T12:19:32;6.03;;;3.65;;
53873;SDS011;62246;50.938;4.058;2022-08-19T12:21:59;8.38;;;3.85;;
53873;SDS011;62246;50.938;4.058;2022-08-19T12:24:28;5.50;;;3.70;;
53873;SDS011;62246;50.938;4.058;2022-08-19T12:26:56;8.20;;;4.22;;
53873;SDS011;62246;50.938;4.058;2022-08-19T12:29:23;7.35;;;4.05;;
53873;SDS011;62246;50.938;4.058;2022-08-19T12:31:53;8.00;;;3.70;;
53873;SDS011;62246;50.938;4.058;2022-08-19T12:34:27;7.28;;;4.28;;
53873;SDS011;62246;50.938;4.058;2022-08-19T12:36:57;8.32;;;4.30;;
53873;SDS011;62246;50.938;4.058;2022-08-19T12:39:24;7.20;;;4.53;;
53873;SDS011;62246;50.938;4.058;2022-08-19T12:41:50;6.80;;;4.68;;
53873;SDS011;62246;50.938;4.058;2022-08-19T12:44:16;7.50;;;4.45;;
53873;SDS011;62246;50.938;4.058;2022-08-19T12:46:41;5.47;;;4.30;;
53873;SDS011;62246;50.938;4.058;2022-08-19T12:49:07;5.32;;;3.58;;
53873;SDS011;62246;50.938;4.058;2022-08-19T12:51:32;6.00;;;3.80;;
53873;SDS011;62246;50.938;4.058;2022-08-19T12:53:58;7.65;;;4.05;;
53873;SDS011;62246;50.938;4.058;2022-08-19T12:56:24;5.22;;;3.83;;
53873;SDS011;62246;50.938;4.058;2022-08-19T12:58:50;8.45;;;3.50;;
53873;SDS011;62246;50.938;4.058;2022-08-19T13:01:16;5.28;;;3.00;;
53873;SDS011;62246;50.938;4.058;2022-08-19T13:03:44;6.78;;;2.70;;
53873;SDS011;62246;50.938;4.058;2022-08-19T13:06:11;6.32;;;2.65;;
53873;SDS011;62246;50.938;4.058;2022-08-19T13:08:36;3.30;;;2.83;;
53873;SDS011;62246;50.938;4.058;2022-08-19T13:11:21;5.53;;;2.97;;
53873;SDS011;62246;50.938;4.058;2022-08-19T13:13:49;6.35;;;2.67;;
53873;SDS011;62246;50.938;4.058;2022-08-19T13:16:16;6.72;;;2.78;;
53873;SDS011;62246;50.938;4.058;2022-08-19T13:18:44;3.25;;;2.05;;
53873;SDS011;62246;50.938;4.058;2022-08-19T13:21:12;4.18;;;2.30;;
53873;SDS011;62246;50.938;4.058;2022-08-19T13:23:38;2.85;;;1.65;;
53873;SDS011;62246;50.938;4.058;2022-08-19T13:26:06;2.30;;;1.58;;
53873;SDS011;62246;50.938;4.058;2022-08-19T13:28:33;3.35;;;1.80;;
53873;SDS011;62246;50.938;4.058;2022-08-19T13:31:18;3.28;;;1.65;;
53873;SDS011;62246;50.938;4.058;2022-08-19T13:34:04;2.63;;;1.80;;
53873;SDS011;62246;50.938;4.058;2022-08-19T13:36:31;4.57;;;1.92;;
53873;SDS011;62246;50.938;4.058;2022-08-19T13:38:59;5.75;;;1.80;;
53873;SDS011;62246;50.938;4.058;2022-08-19T13:41:24;3.58;;;1.60;;
53873;SDS011;62246;50.938;4.058;2022-08-19T13:43:51;3.38;;;2.10;;
53873;SDS011;62246;50.938;4.058;2022-08-19T13:46:17;3.97;;;1.77;;
53873;SDS011;62246;50.938;4.058;2022-08-19T13:48:44;5.75;;;2.40;;
53873;SDS011;62246;50.938;4.058;2022-08-19T13:51:10;3.97;;;2.33;;
53873;SDS011;62246;50.938;4.058;2022-08-19T13:53:36;5.05;;;2.75;;
53873;SDS011;62246;50.938;4.058;2022-08-19T13:56:06;7.38;;;3.35;;
53873;SDS011;62246;50.938;4.058;2022-08-19T13:58:33;6.53;;;4.25;;
53873;SDS011;62246;50.938;4.058;2022-08-19T14:00:59;6.47;;;4.15;;
53873;SDS011;62246;50.938;4.058;2022-08-19T14:03:25;6.20;;;4.18;;
53873;SDS011;62246;50.938;4.058;2022-08-19T14:05:51;5.63;;;3.50;;
53873;SDS011;62246;50.938;4.058;2022-08-19T14:08:16;6.03;;;3.60;;
53873;SDS011;62246;50.938;4.058;2022-08-19T14:10:43;5.38;;;3.70;;
53873;SDS011;62246;50.938;4.058;2022-08-19T14:13:12;6.65;;;3.78;;
53873;SDS011;62246;50.938;4.058;2022-08-19T14:15:40;5.47;;;3.20;;
53873;SDS011;62246;50.938;4.058;2022-08-19T14:18:06;6.55;;;3.08;;
53873;SDS011;62246;50.938;4.058;2022-08-19T14:20:33;6.35;;;2.90;;
53873;SDS011;62246;50.938;4.058;2022-08-19T14:22:59;4.57;;;2.28;;
53873;SDS011;62246;50.938;4.058;2022-08-19T14:25:26;3.78;;;1.60;;
53873;SDS011;62246;50.938;4.058;2022-08-19T14:27:54;4.22;;;1.80;;
53873;SDS011;62246;50.938;4.058;2022-08-19T14:30:24;4.28;;;1.60;;
53873;SDS011;62246;50.938;4.058;2022-08-19T14:32:52;3.88;;;1.50;;
53873;SDS011;62246;50.938;4.058;2022-08-19T14:35:19;2.72;;;1.85;;
53873;SDS011;62246;50.938;4.058;2022-08-19T14:37:47;2.83;;;1.42;;
53873;SDS011;62246;50.938;4.058;2022-08-19T14:40:15;2.50;;;1.70;;
53873;SDS011;62246;50.938;4.058;2022-08-19T14:42:42;5.45;;;1.40;;
53873;SDS011;62246;50.938;4.058;2022-08-19T14:45:08;2.10;;;1.33;;
53873;SDS011;62246;50.938;4.058;2022-08-19T14:47:35;2.55;;;1.40;;
53873;SDS011;62246;50.938;4.058;2022-08-19T14:50:01;4.55;;;1.83;;